^^
Atglen Borough Weather Station Historical Data
 
Daily Summary for March 25, 2019 Units:  English    Metric   Both
Daily Weekly Monthly Yearly Custom
  Current: High: Low: Average:
Temperature: 53.6 °F 53.8 °F 45.1 °F 48.5 °F
Dew Point: 36.9 °F 41.5 °F 34.3 °F 37.3 °F
Humidity: 53% 84% 50% 66%
Wind Speed: 2.0mph 8.1mph 0.0mph 1.4mph
Wind Gust: 6.0mph 10.0mph - -
WindEast - - SSW
Pressure: 30.03 in 30.08 in 29.99 in -
Precipitation: 0.00 in      
Historical Graphs
 
 
Tabular Data for March 25, 2019
Time Temperature Dew Point Pressure Wind Wind Speed Wind Gust Humidity Rainfall Rate (Hourly)
00:04 46.9 °F 35.8 °F 30.07 in Calm   1.0 mph 65% 0.00 in
00:09 46.6 °F 35.8 °F 30.07 in Calm     66% 0.00 in
00:14 46.6 °F 36.1 °F 30.08 in Calm   1.0 mph 67% 0.00 in
00:19 46.4 °F 35.6 °F 30.08 in Calm     66% 0.00 in
00:24 46.0 °F 35.8 °F 30.08 in Calm     67% 0.00 in
00:29 46.0 °F 35.8 °F 30.07 in Calm     67% 0.00 in
00:34 46.0 °F 35.8 °F 30.07 in Calm   1.0 mph 67% 0.00 in
00:39 45.9 °F 36.0 °F 30.07 in Calm   1.0 mph 68% 0.00 in
00:44 45.9 °F 36.3 °F 30.06 in WSW 2.0 mph 2.0 mph 69% 0.00 in
00:49 45.9 °F 36.0 °F 30.06 in WSW 0.9 mph 1.0 mph 68% 0.00 in
00:54 46.0 °F 36.1 °F 30.07 in South 2.9 mph 6.0 mph 68% 0.00 in
00:59 45.9 °F 36.7 °F 30.07 in Calm   1.0 mph 70% 0.00 in
01:04 45.3 °F 36.9 °F 30.07 in Calm   2.0 mph 72% 0.00 in
01:09 45.1 °F 36.7 °F 30.07 in South 2.0 mph 2.0 mph 72% 0.00 in
01:14 45.1 °F 36.7 °F 30.07 in Calm   1.0 mph 72% 0.00 in
01:19 45.1 °F 36.7 °F 30.07 in Calm     72% 0.00 in
01:24 45.3 °F 36.9 °F 30.06 in South 2.0 mph 2.0 mph 72% 0.00 in
01:29 45.9 °F 36.7 °F 30.06 in South 2.0 mph 3.0 mph 70% 0.00 in
01:34 45.9 °F 36.7 °F 30.06 in NW 2.9 mph 4.0 mph 70% 0.00 in
01:39 45.9 °F 36.7 °F 30.06 in NW 2.0 mph 2.0 mph 70% 0.00 in
01:44 46.0 °F 36.1 °F 30.06 in NW 0.9 mph 2.0 mph 68% 0.00 in
01:49 46.2 °F 36.0 °F 30.05 in Calm   1.0 mph 67% 0.00 in
01:54 46.0 °F 36.1 °F 30.05 in Calm   2.0 mph 68% 0.00 in
01:59 45.9 °F 36.3 °F 30.05 in Calm   1.0 mph 69% 0.00 in
02:04 45.7 °F 36.1 °F 30.05 in NNW 0.9 mph 4.0 mph 69% 0.00 in
02:09 46.2 °F 35.4 °F 30.04 in NW 0.9 mph 1.0 mph 66% 0.00 in
02:14 47.1 °F 34.3 °F 30.03 in NW 2.0 mph 2.0 mph 61% 0.00 in
02:19 48.4 °F 34.7 °F 30.03 in South 0.9 mph 3.0 mph 59% 0.00 in
02:24 48.7 °F 35.4 °F 30.03 in SSE 4.0 mph 6.0 mph 60% 0.00 in
02:29 48.4 °F 35.6 °F 30.03 in SSE 0.9 mph 4.0 mph 61% 0.00 in
02:34 47.7 °F 36.1 °F 30.03 in SSE 2.0 mph 2.0 mph 64% 0.00 in
02:39 47.7 °F 36.1 °F 30.03 in WSW 0.9 mph 5.0 mph 64% 0.00 in
02:44 48.0 °F 35.6 °F 30.03 in NNW 0.9 mph 4.0 mph 62% 0.00 in
02:49 48.7 °F 35.1 °F 30.03 in NNW 0.9 mph 2.0 mph 59% 0.00 in
02:54 49.3 °F 35.1 °F 30.03 in WSW 2.0 mph 3.0 mph 58% 0.00 in
02:59 49.5 °F 35.2 °F 30.03 in SW 0.9 mph 2.0 mph 58% 0.00 in
03:04 49.1 °F 35.8 °F 30.03 in SW 2.0 mph 3.0 mph 60% 0.00 in
03:09 48.9 °F 35.2 °F 30.03 in Calm   1.0 mph 59% 0.00 in
03:14 49.5 °F 35.2 °F 30.03 in Calm   4.0 mph 58% 0.00 in
03:19 49.5 °F 34.9 °F 30.02 in Calm   1.0 mph 57% 0.00 in
03:24 49.1 °F 34.9 °F 30.02 in Calm   1.0 mph 58% 0.00 in
03:29 48.9 °F 35.2 °F 30.02 in WSW 0.9 mph 1.0 mph 59% 0.00 in
03:34 48.7 °F 35.1 °F 30.01 in WSW 0.9 mph 2.0 mph 59% 0.00 in
03:39 48.7 °F 36.0 °F 30.01 in West 0.9 mph 2.0 mph 61% 0.00 in
03:44 48.6 °F 35.8 °F 30.01 in NNW 0.9 mph 4.0 mph 61% 0.00 in
03:49 49.3 °F 35.6 °F 30.01 in NNW 0.9 mph 2.0 mph 59% 0.00 in
03:54 49.8 °F 35.2 °F 30.01 in Calm   1.0 mph 57% 0.00 in
03:59 48.9 °F 35.6 °F 30.01 in Calm     60% 0.00 in
04:04 48.7 °F 35.4 °F 30.01 in Calm     60% 0.00 in
04:09 48.6 °F 35.8 °F 30.01 in Calm     61% 0.00 in
04:14 48.7 °F 35.4 °F 30.01 in Calm   1.0 mph 60% 0.00 in
04:19 48.4 °F 35.6 °F 30.01 in Calm   1.0 mph 61% 0.00 in
04:24 49.1 °F 35.4 °F 30.01 in Calm   4.0 mph 59% 0.00 in
04:29 49.3 °F 35.6 °F 30.01 in WSW 4.0 mph 6.0 mph 59% 0.00 in
04:34 49.6 °F 35.4 °F 30.01 in NNW 0.9 mph 3.0 mph 58% 0.00 in
04:39 50.0 °F 35.8 °F 30.02 in NNW 2.9 mph 5.0 mph 58% 0.00 in
04:44 49.8 °F 35.6 °F 30.01 in NNW 4.9 mph 8.0 mph 58% 0.00 in
04:49 49.8 °F 36.9 °F 30.02 in NNW 2.0 mph 5.0 mph 61% 0.00 in
04:54 49.5 °F 37.0 °F 30.01 in NNW 2.9 mph 5.0 mph 62% 0.00 in
04:59 49.3 °F 37.2 °F 30.01 in NNW 6.0 mph 6.0 mph 63% 0.00 in
05:04 49.1 °F 37.0 °F 30.02 in NNW 2.0 mph 4.0 mph 63% 0.00 in
05:09 48.9 °F 37.2 °F 30.01 in NNW 0.9 mph 2.0 mph 64% 0.00 in
05:14 48.6 °F 38.5 °F 30.01 in Calm   1.0 mph 68% 0.00 in
05:19 47.8 °F 39.2 °F 30.01 in NNW 0.9 mph 2.0 mph 72% 0.00 in
05:24 47.5 °F 39.2 °F 30.01 in Calm     73% 0.00 in
05:29 46.9 °F 39.4 °F 30.01 in Calm     75% 0.00 in
05:34 46.6 °F 39.7 °F 30.01 in Calm     77% 0.00 in
05:39 46.2 °F 39.0 °F 30.00 in Calm     76% 0.00 in
05:44 46.0 °F 39.2 °F 30.01 in Calm     77% 0.00 in
05:49 46.0 °F 39.6 °F 30.01 in Calm     78% 0.00 in
05:54 45.9 °F 39.4 °F 30.00 in Calm     78% 0.00 in
05:59 46.2 °F 39.4 °F 30.00 in NNW 0.9 mph 3.0 mph 77% 0.00 in
06:04 46.4 °F 39.6 °F 30.00 in NNW 2.0 mph 3.0 mph 77% 0.00 in
06:09 46.2 °F 39.0 °F 30.00 in NNW 0.9 mph 1.0 mph 76% 0.00 in
06:14 46.6 °F 39.0 °F 30.00 in Calm     75% 0.00 in
06:19 46.6 °F 40.5 °F 30.00 in Calm   1.0 mph 79% 0.00 in
06:24 46.2 °F 40.5 °F 30.00 in NNW 0.9 mph 1.0 mph 80% 0.00 in
06:29 46.0 °F 40.5 °F 30.00 in Calm   1.0 mph 81% 0.00 in
06:34 45.9 °F 40.3 °F 30.01 in Calm     81% 0.00 in
06:39 45.7 °F 40.5 °F 30.01 in Calm     82% 0.00 in
06:44 45.5 °F 40.3 °F 30.00 in Calm   1.0 mph 82% 0.00 in
06:49 45.3 °F 40.5 °F 30.01 in Calm   1.0 mph 83% 0.00 in
06:54 45.3 °F 40.5 °F 30.01 in Calm     83% 0.00 in
06:59 45.1 °F 40.6 °F 30.00 in Calm   1.0 mph 84% 0.00 in
07:04 45.1 °F 40.3 °F 30.00 in Calm   1.0 mph 83% 0.00 in
07:09 45.3 °F 40.5 °F 30.00 in Calm   1.0 mph 83% 0.00 in
07:14 45.5 °F 40.6 °F 30.00 in Calm   2.0 mph 83% 0.00 in
07:19 45.7 °F 40.5 °F 30.00 in Calm   1.0 mph 82% 0.00 in
07:24 45.7 °F 40.8 °F 30.00 in NNW 0.9 mph 1.0 mph 83% 0.00 in
07:29 45.7 °F 40.8 °F 30.00 in Calm     83% 0.00 in
07:34 45.9 °F 40.6 °F 30.00 in Calm   1.0 mph 82% 0.00 in
07:39 46.2 °F 40.1 °F 29.99 in Calm   1.0 mph 79% 0.00 in
07:44 46.6 °F 40.5 °F 30.00 in Calm     79% 0.00 in
07:49 46.6 °F 41.4 °F 30.00 in NNW 0.9 mph 1.0 mph 82% 0.00 in
07:54 46.2 °F 41.4 °F 30.00 in NNW 0.9 mph 1.0 mph 83% 0.00 in
07:59 46.2 °F 41.4 °F 30.01 in NNW 2.0 mph 2.0 mph 83% 0.00 in
08:04 46.4 °F 41.5 °F 30.01 in NNW 0.9 mph 1.0 mph 83% 0.00 in
08:09 46.4 °F 41.2 °F 30.01 in NNW 0.9 mph 1.0 mph 82% 0.00 in
08:14 46.4 °F 40.8 °F 30.01 in NNW 0.9 mph 2.0 mph 81% 0.00 in
08:19 46.9 °F 40.8 °F 30.01 in NNW 2.0 mph 2.0 mph 79% 0.00 in
08:24 48.4 °F 39.4 °F 30.01 in NNE 0.9 mph 5.0 mph 71% 0.00 in
08:29 49.5 °F 38.1 °F 30.01 in North 2.0 mph 5.0 mph 65% 0.00 in
08:34 50.4 °F 38.3 °F 30.02 in North 2.0 mph 3.0 mph 63% 0.00 in
08:39 50.5 °F 37.2 °F 30.02 in North 4.9 mph 6.0 mph 60% 0.00 in
08:44 50.7 °F 36.9 °F 30.02 in NNE 6.9 mph 7.0 mph 59% 0.00 in
08:49 50.7 °F 36.9 °F 30.03 in NNW 2.9 mph 4.0 mph 59% 0.00 in
08:53 50.7 °F 36.9 °F 30.03 in NNE 0.9 mph 4.0 mph 59% 0.00 in
08:58 50.9 °F 38.3 °F 30.03 in NNE 0.9 mph 2.0 mph 62% 0.00 in
09:03 51.1 °F 37.8 °F 30.03 in NNE 4.0 mph 4.0 mph 60% 0.00 in
09:08 51.3 °F 37.8 °F 30.02 in NE 0.9 mph 4.0 mph 60% 0.00 in
09:12 51.3 °F 37.0 °F 30.03 in North 0.9 mph 4.0 mph 58% 0.00 in
09:17 51.3 °F 37.0 °F 30.03 in NE 2.0 mph 4.0 mph 58% 0.00 in
09:22 51.3 °F 37.4 °F 30.03 in Calm   4.0 mph 59% 0.00 in
09:27 51.3 °F 37.4 °F 30.03 in NE 0.9 mph 4.0 mph 59% 0.00 in
09:31 51.3 °F 37.0 °F 30.03 in Calm   5.0 mph 58% 0.00 in
09:36 51.3 °F 37.0 °F 30.03 in NE 0.9 mph 3.0 mph 58% 0.00 in
09:41 51.3 °F 37.0 °F 30.03 in NE 2.9 mph 3.0 mph 58% 0.00 in
09:45 51.3 °F 36.5 °F 30.03 in NNE 4.0 mph 6.0 mph 57% 0.00 in
09:49 51.3 °F 37.0 °F 30.04 in NE 2.0 mph 4.0 mph 58% 0.00 in
09:54 51.4 °F 36.7 °F 30.04 in NNE 4.0 mph 6.0 mph 57% 0.00 in
09:58 51.4 °F 36.3 °F 30.03 in NE 2.0 mph 5.0 mph 56% 0.00 in
10:04 51.4 °F 35.8 °F 30.04 in North 6.0 mph 10.0 mph 55% 0.00 in
10:08 51.4 °F 35.8 °F 30.04 in North 8.1 mph 9.0 mph 55% 0.00 in
10:12 51.3 °F 35.6 °F 30.04 in NNE 4.0 mph 5.0 mph 55% 0.00 in
10:17 51.3 °F 35.6 °F 30.04 in NE 2.9 mph 5.0 mph 55% 0.00 in
10:21 51.3 °F 35.2 °F 30.04 in NNE 4.0 mph 8.0 mph 54% 0.00 in
10:26 51.4 °F 35.8 °F 30.04 in North 2.9 mph 5.0 mph 55% 0.00 in
10:31 51.6 °F 35.6 °F 30.04 in North 0.9 mph 7.0 mph 54% 0.00 in
10:35 52.0 °F 36.3 °F 30.04 in NNE 2.0 mph 4.0 mph 55% 0.00 in
10:41 52.9 °F 36.1 °F 30.04 in NE 2.9 mph 5.0 mph 53% 0.00 in
10:45 53.1 °F 36.0 °F 30.04 in NE 2.0 mph 3.0 mph 52% 0.00 in
10:49 52.9 °F 35.2 °F 30.04 in NE 4.0 mph 8.0 mph 51% 0.00 in
10:54 52.7 °F 35.1 °F 30.04 in North 4.9 mph 10.0 mph 51% 0.00 in
10:58 52.7 °F 35.1 °F 30.04 in North 4.0 mph 8.0 mph 51% 0.00 in
11:03 52.9 °F 36.1 °F 30.03 in NNW 2.9 mph 6.0 mph 53% 0.00 in
11:08 53.8 °F 37.0 °F 30.03 in NNE 6.0 mph 10.0 mph 53% 0.00 in
11:11 53.8 °F 35.6 °F 30.03 in NW 4.9 mph 10.0 mph 50% 0.00 in
11:16 53.6 °F 36.0 °F 30.03 in ENE 2.9 mph 7.0 mph 51% 0.00 in
11:21 53.6 °F 36.3 °F 30.03 in SSE 4.0 mph 6.0 mph 52% 0.00 in
11:25 53.4 °F 35.8 °F 30.04 in NNE 0.9 mph 4.0 mph 51% 0.00 in
11:30 53.4 °F 36.3 °F 30.04 in NE 2.0 mph 7.0 mph 52% 0.00 in
11:35 53.6 °F 36.9 °F 30.03 in East 2.0 mph 6.0 mph 53% 0.00 in
Atglen Borough Observatory, Pennsylvania, USA
Compliments of Weather Underground - 2.75 mb